sensor_id;sensor_type;location;lat;lon;timestamp;P1;durP1;ratioP1;P2;durP2;ratioP2
1414;SDS011;702;49.466;11.086;2023-05-01T00:01:50;2.10;;;1.77;;
1414;SDS011;702;49.466;11.086;2023-05-01T00:04:17;3.10;;;2.67;;
1414;SDS011;702;49.466;11.086;2023-05-01T00:06:46;1.97;;;1.87;;
1414;SDS011;702;49.466;11.086;2023-05-01T00:09:13;3.23;;;1.70;;
1414;SDS011;702;49.466;11.086;2023-05-01T00:11:40;2.10;;;1.90;;
1414;SDS011;702;49.466;11.086;2023-05-01T00:14:09;2.17;;;2.00;;
1414;SDS011;702;49.466;11.086;2023-05-01T00:16:36;2.30;;;2.10;;
1414;SDS011;702;49.466;11.086;2023-05-01T00:19:04;2.00;;;1.90;;
1414;SDS011;702;49.466;11.086;2023-05-01T00:21:33;2.07;;;1.83;;
1414;SDS011;702;49.466;11.086;2023-05-01T00:24:00;1.83;;;1.73;;
1414;SDS011;702;49.466;11.086;2023-05-01T00:26:28;2.47;;;2.00;;
1414;SDS011;702;49.466;11.086;2023-05-01T00:28:56;2.03;;;1.83;;
1414;SDS011;702;49.466;11.086;2023-05-01T00:31:25;1.70;;;1.60;;
1414;SDS011;702;49.466;11.086;2023-05-01T00:33:52;1.83;;;1.73;;
1414;SDS011;702;49.466;11.086;2023-05-01T00:36:19;2.73;;;1.63;;
1414;SDS011;702;49.466;11.086;2023-05-01T00:38:47;2.70;;;1.73;;
1414;SDS011;702;49.466;11.086;2023-05-01T00:41:14;3.33;;;2.40;;
1414;SDS011;702;49.466;11.086;2023-05-01T00:43:42;2.00;;;1.67;;
1414;SDS011;702;49.466;11.086;2023-05-01T00:46:09;2.03;;;1.80;;
1414;SDS011;702;49.466;11.086;2023-05-01T00:48:38;2.10;;;1.90;;
1414;SDS011;702;49.466;11.086;2023-05-01T00:51:05;2.43;;;1.80;;
1414;SDS011;702;49.466;11.086;2023-05-01T00:53:33;2.23;;;2.00;;
1414;SDS011;702;49.466;11.086;2023-05-01T00:56:01;2.87;;;2.00;;
1414;SDS011;702;49.466;11.086;2023-05-01T00:58:32;3.07;;;2.23;;
1414;SDS011;702;49.466;11.086;2023-05-01T01:01:00;1.83;;;1.73;;
1414;SDS011;702;49.466;11.086;2023-05-01T01:03:29;2.80;;;2.50;;
1414;SDS011;702;49.466;11.086;2023-05-01T01:05:59;2.60;;;2.20;;
1414;SDS011;702;49.466;11.086;2023-05-01T01:08:37;2.13;;;1.93;;
1414;SDS011;702;49.466;11.086;2023-05-01T01:11:12;2.30;;;2.10;;
1414;SDS011;702;49.466;11.086;2023-05-01T01:13:51;2.60;;;1.93;;
1414;SDS011;702;49.466;11.086;2023-05-01T01:16:26;2.30;;;2.10;;
1414;SDS011;702;49.466;11.086;2023-05-01T01:19:14;2.03;;;1.90;;
1414;SDS011;702;49.466;11.086;2023-05-01T01:22:10;2.37;;;2.17;;
1414;SDS011;702;49.466;11.086;2023-05-01T01:24:53;2.77;;;2.17;;
1414;SDS011;702;49.466;11.086;2023-05-01T01:27:51;2.13;;;1.90;;
1414;SDS011;702;49.466;11.086;2023-05-01T01:31:05;2.50;;;2.30;;
1414;SDS011;702;49.466;11.086;2023-05-01T01:33:51;2.90;;;2.70;;
1414;SDS011;702;49.466;11.086;2023-05-01T01:36:50;2.43;;;2.23;;
1414;SDS011;702;49.466;11.086;2023-05-01T01:39:28;3.03;;;2.40;;
1414;SDS011;702;49.466;11.086;2023-05-01T01:42:04;2.70;;;2.37;;
1414;SDS011;702;49.466;11.086;2023-05-01T01:44:36;3.40;;;2.30;;
1414;SDS011;702;49.466;11.086;2023-05-01T01:47:09;2.30;;;2.10;;
1414;SDS011;702;49.466;11.086;2023-05-01T01:49:43;2.70;;;2.47;;
1414;SDS011;702;49.466;11.086;2023-05-01T01:52:17;2.37;;;2.03;;
1414;SDS011;702;49.466;11.086;2023-05-01T01:54:47;2.67;;;2.47;;
1414;SDS011;702;49.466;11.086;2023-05-01T01:57:20;2.63;;;2.40;;
1414;SDS011;702;49.466;11.086;2023-05-01T01:59:49;3.77;;;2.67;;
1414;SDS011;702;49.466;11.086;2023-05-01T02:02:18;4.30;;;2.43;;
1414;SDS011;702;49.466;11.086;2023-05-01T02:04:59;3.63;;;2.70;;
1414;SDS011;702;49.466;11.086;2023-05-01T02:07:30;5.10;;;2.70;;
1414;SDS011;702;49.466;11.086;2023-05-01T02:09:58;3.07;;;2.70;;
1414;SDS011;702;49.466;11.086;2023-05-01T02:12:29;5.13;;;2.57;;
1414;SDS011;702;49.466;11.086;2023-05-01T02:14:58;4.00;;;2.70;;
1414;SDS011;702;49.466;11.086;2023-05-01T02:17:31;2.43;;;2.23;;
1414;SDS011;702;49.466;11.086;2023-05-01T02:20:03;2.53;;;2.20;;
1414;SDS011;702;49.466;11.086;2023-05-01T02:22:32;4.57;;;3.40;;
1414;SDS011;702;49.466;11.086;2023-05-01T02:25:00;4.20;;;3.40;;
1414;SDS011;702;49.466;11.086;2023-05-01T02:27:30;4.60;;;2.90;;
1414;SDS011;702;49.466;11.086;2023-05-01T02:30:02;4.83;;;2.73;;
1414;SDS011;702;49.466;11.086;2023-05-01T02:32:31;3.40;;;3.10;;
1414;SDS011;702;49.466;11.086;2023-05-01T02:34:59;5.53;;;2.87;;
1414;SDS011;702;49.466;11.086;2023-05-01T02:37:28;3.17;;;2.90;;
1414;SDS011;702;49.466;11.086;2023-05-01T02:39:56;3.80;;;2.67;;
1414;SDS011;702;49.466;11.086;2023-05-01T02:42:24;6.10;;;3.00;;
1414;SDS011;702;49.466;11.086;2023-05-01T02:44:54;4.30;;;3.40;;
1414;SDS011;702;49.466;11.086;2023-05-01T02:47:26;4.00;;;2.80;;
1414;SDS011;702;49.466;11.086;2023-05-01T02:49:55;3.40;;;3.10;;
1414;SDS011;702;49.466;11.086;2023-05-01T02:52:25;4.80;;;3.97;;
1414;SDS011;702;49.466;11.086;2023-05-01T02:54:54;3.57;;;3.27;;
1414;SDS011;702;49.466;11.086;2023-05-01T02:57:22;4.47;;;3.33;;
1414;SDS011;702;49.466;11.086;2023-05-01T02:59:50;3.37;;;3.07;;
1414;SDS011;702;49.466;11.086;2023-05-01T03:02:18;2.73;;;2.53;;
1414;SDS011;702;49.466;11.086;2023-05-01T03:04:45;4.50;;;3.70;;
1414;SDS011;702;49.466;11.086;2023-05-01T03:07:13;4.80;;;2.97;;
1414;SDS011;702;49.466;11.086;2023-05-01T03:09:41;5.17;;;3.77;;
1414;SDS011;702;49.466;11.086;2023-05-01T03:12:09;4.73;;;3.30;;
1414;SDS011;702;49.466;11.086;2023-05-01T03:14:36;4.63;;;3.60;;
1414;SDS011;702;49.466;11.086;2023-05-01T03:17:04;6.60;;;3.80;;
1414;SDS011;702;49.466;11.086;2023-05-01T03:19:31;5.80;;;4.30;;
1414;SDS011;702;49.466;11.086;2023-05-01T03:21:58;3.43;;;3.13;;
1414;SDS011;702;49.466;11.086;2023-05-01T03:24:26;4.57;;;3.40;;
1414;SDS011;702;49.466;11.086;2023-05-01T03:26:54;4.20;;;3.80;;
1414;SDS011;702;49.466;11.086;2023-05-01T03:29:22;5.53;;;3.63;;
1414;SDS011;702;49.466;11.086;2023-05-01T03:31:49;4.53;;;3.77;;
1414;SDS011;702;49.466;11.086;2023-05-01T03:34:21;4.70;;;4.20;;
1414;SDS011;702;49.466;11.086;2023-05-01T03:36:48;4.37;;;3.97;;
1414;SDS011;702;49.466;11.086;2023-05-01T03:39:17;4.00;;;3.57;;
1414;SDS011;702;49.466;11.086;2023-05-01T03:41:44;3.90;;;3.50;;
1414;SDS011;702;49.466;11.086;2023-05-01T03:44:14;6.20;;;3.97;;
1414;SDS011;702;49.466;11.086;2023-05-01T03:46:55;4.70;;;3.80;;
1414;SDS011;702;49.466;11.086;2023-05-01T03:49:23;4.90;;;3.57;;
1414;SDS011;702;49.466;11.086;2023-05-01T03:51:50;3.97;;;3.40;;
1414;SDS011;702;49.466;11.086;2023-05-01T03:54:18;4.83;;;3.50;;
1414;SDS011;702;49.466;11.086;2023-05-01T03:56:45;4.37;;;3.63;;
1414;SDS011;702;49.466;11.086;2023-05-01T03:59:14;7.73;;;3.70;;
1414;SDS011;702;49.466;11.086;2023-05-01T04:01:41;3.63;;;3.20;;
1414;SDS011;702;49.466;11.086;2023-05-01T04:04:09;9.27;;;4.43;;
1414;SDS011;702;49.466;11.086;2023-05-01T04:06:36;3.93;;;3.50;;
1414;SDS011;702;49.466;11.086;2023-05-01T04:09:04;3.80;;;3.00;;
1414;SDS011;702;49.466;11.086;2023-05-01T04:11:32;5.00;;;3.70;;
1414;SDS011;702;49.466;11.086;2023-05-01T04:14:00;4.47;;;3.80;;
1414;SDS011;702;49.466;11.086;2023-05-01T04:16:30;3.80;;;3.40;;
1414;SDS011;702;49.466;11.086;2023-05-01T04:18:57;4.27;;;3.70;;
1414;SDS011;702;49.466;11.086;2023-05-01T04:21:25;6.87;;;4.00;;
1414;SDS011;702;49.466;11.086;2023-05-01T04:23:53;4.57;;;3.93;;
1414;SDS011;702;49.466;11.086;2023-05-01T04:26:20;4.37;;;3.97;;
1414;SDS011;702;49.466;11.086;2023-05-01T04:28:48;7.13;;;4.00;;
1414;SDS011;702;49.466;11.086;2023-05-01T04:31:16;3.30;;;2.63;;
1414;SDS011;702;49.466;11.086;2023-05-01T04:33:44;4.23;;;3.90;;
1414;SDS011;702;49.466;11.086;2023-05-01T04:36:13;3.93;;;3.60;;
1414;SDS011;702;49.466;11.086;2023-05-01T04:38:41;3.77;;;3.33;;
1414;SDS011;702;49.466;11.086;2023-05-01T04:41:09;5.13;;;4.37;;
1414;SDS011;702;49.466;11.086;2023-05-01T04:43:38;5.33;;;4.47;;
1414;SDS011;702;49.466;11.086;2023-05-01T04:46:07;6.60;;;4.07;;
1414;SDS011;702;49.466;11.086;2023-05-01T04:48:35;4.20;;;3.80;;
1414;SDS011;702;49.466;11.086;2023-05-01T04:51:04;4.20;;;3.60;;
1414;SDS011;702;49.466;11.086;2023-05-01T04:53:31;4.43;;;3.60;;
1414;SDS011;702;49.466;11.086;2023-05-01T04:55:59;5.87;;;4.13;;
1414;SDS011;702;49.466;11.086;2023-05-01T04:58:26;5.27;;;3.83;;
1414;SDS011;702;49.466;11.086;2023-05-01T05:00:54;4.47;;;4.07;;
1414;SDS011;702;49.466;11.086;2023-05-01T05:03:22;5.93;;;4.50;;
1414;SDS011;702;49.466;11.086;2023-05-01T05:05:50;5.27;;;4.20;;
1414;SDS011;702;49.466;11.086;2023-05-01T05:08:19;5.77;;;4.77;;
1414;SDS011;702;49.466;11.086;2023-05-01T05:10:47;7.10;;;4.10;;
1414;SDS011;702;49.466;11.086;2023-05-01T05:13:15;6.67;;;4.20;;
1414;SDS011;702;49.466;11.086;2023-05-01T05:15:42;4.73;;;3.80;;
1414;SDS011;702;49.466;11.086;2023-05-01T05:18:09;6.63;;;4.10;;
1414;SDS011;702;49.466;11.086;2023-05-01T05:20:39;6.70;;;5.40;;
1414;SDS011;702;49.466;11.086;2023-05-01T05:23:06;5.37;;;4.43;;
1414;SDS011;702;49.466;11.086;2023-05-01T05:25:38;5.13;;;4.13;;
1414;SDS011;702;49.466;11.086;2023-05-01T05:28:05;5.60;;;4.00;;
1414;SDS011;702;49.466;11.086;2023-05-01T05:30:33;4.97;;;4.57;;
1414;SDS011;702;49.466;11.086;2023-05-01T05:33:02;4.50;;;3.90;;
1414;SDS011;702;49.466;11.086;2023-05-01T05:35:47;5.13;;;4.13;;
1414;SDS011;702;49.466;11.086;2023-05-01T05:38:15;6.03;;;4.40;;
1414;SDS011;702;49.466;11.086;2023-05-01T05:40:44;4.80;;;4.13;;
1414;SDS011;702;49.466;11.086;2023-05-01T05:43:51;5.90;;;4.03;;
1414;SDS011;702;49.466;11.086;2023-05-01T05:46:19;5.77;;;4.40;;
1414;SDS011;702;49.466;11.086;2023-05-01T05:48:46;6.00;;;4.67;;
1414;SDS011;702;49.466;11.086;2023-05-01T05:51:14;5.03;;;4.53;;
1414;SDS011;702;49.466;11.086;2023-05-01T05:53:41;5.00;;;4.50;;
1414;SDS011;702;49.466;11.086;2023-05-01T05:56:10;5.37;;;4.60;;
1414;SDS011;702;49.466;11.086;2023-05-01T05:58:37;5.60;;;4.67;;
1414;SDS011;702;49.466;11.086;2023-05-01T06:01:05;6.30;;;4.63;;
1414;SDS011;702;49.466;11.086;2023-05-01T06:03:33;7.33;;;4.87;;
1414;SDS011;702;49.466;11.086;2023-05-01T06:06:01;5.17;;;4.30;;
1414;SDS011;702;49.466;11.086;2023-05-01T06:08:28;4.60;;;3.80;;
1414;SDS011;702;49.466;11.086;2023-05-01T06:10:56;5.33;;;4.07;;
1414;SDS011;702;49.466;11.086;2023-05-01T06:13:25;4.63;;;4.00;;
1414;SDS011;702;49.466;11.086;2023-05-01T06:15:52;6.80;;;4.70;;
1414;SDS011;702;49.466;11.086;2023-05-01T06:18:19;5.23;;;4.63;;
1414;SDS011;702;49.466;11.086;2023-05-01T06:20:47;5.43;;;4.43;;
1414;SDS011;702;49.466;11.086;2023-05-01T06:23:16;7.60;;;5.20;;
1414;SDS011;702;49.466;11.086;2023-05-01T06:25:43;5.20;;;4.50;;
1414;SDS011;702;49.466;11.086;2023-05-01T06:28:13;6.30;;;4.17;;
1414;SDS011;702;49.466;11.086;2023-05-01T06:30:41;5.70;;;5.10;;
1414;SDS011;702;49.466;11.086;2023-05-01T06:33:08;4.70;;;4.30;;
1414;SDS011;702;49.466;11.086;2023-05-01T06:35:37;5.50;;;5.00;;
1414;SDS011;702;49.466;11.086;2023-05-01T06:38:04;5.33;;;4.63;;
1414;SDS011;702;49.466;11.086;2023-05-01T06:40:32;5.60;;;4.70;;
1414;SDS011;702;49.466;11.086;2023-05-01T06:43:02;4.70;;;4.30;;
1414;SDS011;702;49.466;11.086;2023-05-01T06:45:29;5.90;;;5.30;;
1414;SDS011;702;49.466;11.086;2023-05-01T06:47:58;5.80;;;4.73;;
1414;SDS011;702;49.466;11.086;2023-05-01T06:50:26;6.33;;;5.00;;
1414;SDS011;702;49.466;11.086;2023-05-01T06:52:54;7.73;;;5.30;;
1414;SDS011;702;49.466;11.086;2023-05-01T06:55:23;7.90;;;5.50;;
1414;SDS011;702;49.466;11.086;2023-05-01T06:57:50;5.67;;;4.90;;
1414;SDS011;702;49.466;11.086;2023-05-01T07:00:18;7.73;;;4.87;;
1414;SDS011;702;49.466;11.086;2023-05-01T07:02:45;5.00;;;4.60;;
1414;SDS011;702;49.466;11.086;2023-05-01T07:05:14;6.00;;;5.43;;
1414;SDS011;702;49.466;11.086;2023-05-01T07:07:42;5.17;;;4.70;;
1414;SDS011;702;49.466;11.086;2023-05-01T07:10:11;5.40;;;4.90;;
1414;SDS011;702;49.466;11.086;2023-05-01T07:12:38;4.87;;;4.47;;
1414;SDS011;702;49.466;11.086;2023-05-01T07:15:06;6.70;;;5.73;;
1414;SDS011;702;49.466;11.086;2023-05-01T07:17:34;6.63;;;5.10;;
1414;SDS011;702;49.466;11.086;2023-05-01T07:20:01;7.70;;;5.43;;
1414;SDS011;702;49.466;11.086;2023-05-01T07:22:31;5.13;;;4.63;;
1414;SDS011;702;49.466;11.086;2023-05-01T07:24:58;6.20;;;5.70;;
1414;SDS011;702;49.466;11.086;2023-05-01T07:27:27;5.67;;;4.47;;
1414;SDS011;702;49.466;11.086;2023-05-01T07:29:55;5.83;;;4.47;;
1414;SDS011;702;49.466;11.086;2023-05-01T07:32:22;6.10;;;4.33;;
1414;SDS011;702;49.466;11.086;2023-05-01T07:34:49;5.20;;;4.70;;
1414;SDS011;702;49.466;11.086;2023-05-01T07:37:16;7.20;;;5.33;;
1414;SDS011;702;49.466;11.086;2023-05-01T07:39:45;7.90;;;5.33;;
1414;SDS011;702;49.466;11.086;2023-05-01T07:42:12;5.67;;;5.10;;
1414;SDS011;702;49.466;11.086;2023-05-01T07:44:39;5.20;;;4.37;;
1414;SDS011;702;49.466;11.086;2023-05-01T07:47:07;5.50;;;4.97;;
1414;SDS011;702;49.466;11.086;2023-05-01T07:49:34;5.13;;;4.63;;
1414;SDS011;702;49.466;11.086;2023-05-01T07:52:03;4.53;;;4.10;;
1414;SDS011;702;49.466;11.086;2023-05-01T07:54:31;5.00;;;4.50;;
1414;SDS011;702;49.466;11.086;2023-05-01T07:57:00;6.77;;;5.00;;
1414;SDS011;702;49.466;11.086;2023-05-01T07:59:27;4.53;;;4.10;;
1414;SDS011;702;49.466;11.086;2023-05-01T08:01:55;4.90;;;4.50;;
1414;SDS011;702;49.466;11.086;2023-05-01T08:04:22;5.80;;;5.30;;
1414;SDS011;702;49.466;11.086;2023-05-01T08:06:50;5.77;;;5.17;;
1414;SDS011;702;49.466;11.086;2023-05-01T08:09:17;5.00;;;4.50;;
1414;SDS011;702;49.466;11.086;2023-05-01T08:11:44;4.63;;;4.13;;
1414;SDS011;702;49.466;11.086;2023-05-01T08:14:13;4.77;;;4.27;;
1414;SDS011;702;49.466;11.086;2023-05-01T08:16:42;4.93;;;4.43;;
1414;SDS011;702;49.466;11.086;2023-05-01T08:19:09;8.23;;;4.37;;
1414;SDS011;702;49.466;11.086;2023-05-01T08:21:37;7.70;;;4.00;;
1414;SDS011;702;49.466;11.086;2023-05-01T08:24:07;7.07;;;4.37;;
1414;SDS011;702;49.466;11.086;2023-05-01T08:26:35;4.73;;;4.30;;
1414;SDS011;702;49.466;11.086;2023-05-01T08:29:03;4.60;;;4.20;;
1414;SDS011;702;49.466;11.086;2023-05-01T08:31:31;6.80;;;4.80;;
1414;SDS011;702;49.466;11.086;2023-05-01T08:34:02;6.10;;;4.90;;
1414;SDS011;702;49.466;11.086;2023-05-01T08:36:29;8.00;;;5.30;;
1414;SDS011;702;49.466;11.086;2023-05-01T08:38:57;4.63;;;4.13;;
1414;SDS011;702;49.466;11.086;2023-05-01T08:41:24;4.93;;;4.50;;
1414;SDS011;702;49.466;11.086;2023-05-01T08:43:55;4.00;;;3.70;;
1414;SDS011;702;49.466;11.086;2023-05-01T08:46:24;5.20;;;4.70;;
1414;SDS011;702;49.466;11.086;2023-05-01T08:49:08;6.73;;;4.90;;
1414;SDS011;702;49.466;11.086;2023-05-01T08:51:39;5.10;;;4.60;;
1414;SDS011;702;49.466;11.086;2023-05-01T08:54:11;5.23;;;4.70;;
1414;SDS011;702;49.466;11.086;2023-05-01T08:56:40;5.97;;;4.33;;
1414;SDS011;702;49.466;11.086;2023-05-01T08:59:10;6.40;;;4.00;;
1414;SDS011;702;49.466;11.086;2023-05-01T09:01:41;3.87;;;3.57;;
1414;SDS011;702;49.466;11.086;2023-05-01T09:04:10;4.00;;;3.70;;
1414;SDS011;702;49.466;11.086;2023-05-01T09:06:38;4.23;;;3.40;;
1414;SDS011;702;49.466;11.086;2023-05-01T09:09:08;4.40;;;3.80;;
1414;SDS011;702;49.466;11.086;2023-05-01T09:11:36;4.40;;;4.00;;
1414;SDS011;702;49.466;11.086;2023-05-01T09:14:03;4.27;;;3.73;;
1414;SDS011;702;49.466;11.086;2023-05-01T09:16:32;4.00;;;3.50;;
1414;SDS011;702;49.466;11.086;2023-05-01T09:19:01;4.03;;;3.63;;
1414;SDS011;702;49.466;11.086;2023-05-01T09:21:30;5.40;;;4.63;;
1414;SDS011;702;49.466;11.086;2023-05-01T09:23:58;4.90;;;4.50;;
1414;SDS011;702;49.466;11.086;2023-05-01T09:26:25;4.53;;;3.97;;
1414;SDS011;702;49.466;11.086;2023-05-01T09:28:53;6.40;;;4.50;;
1414;SDS011;702;49.466;11.086;2023-05-01T09:31:23;5.23;;;4.00;;
1414;SDS011;702;49.466;11.086;2023-05-01T09:33:53;5.13;;;3.83;;
1414;SDS011;702;49.466;11.086;2023-05-01T09:36:24;5.53;;;4.93;;
1414;SDS011;702;49.466;11.086;2023-05-01T09:38:55;4.27;;;3.50;;
1414;SDS011;702;49.466;11.086;2023-05-01T09:41:24;4.43;;;4.03;;
1414;SDS011;702;49.466;11.086;2023-05-01T09:44:16;6.07;;;4.10;;
1414;SDS011;702;49.466;11.086;2023-05-01T09:47:02;6.97;;;4.20;;
1414;SDS011;702;49.466;11.086;2023-05-01T09:49:50;4.33;;;3.93;;
1414;SDS011;702;49.466;11.086;2023-05-01T09:52:39;4.50;;;4.10;;
1414;SDS011;702;49.466;11.086;2023-05-01T09:55:36;5.00;;;4.20;;
1414;SDS011;702;49.466;11.086;2023-05-01T09:58:26;6.70;;;5.10;;
1414;SDS011;702;49.466;11.086;2023-05-01T10:01:14;4.63;;;4.10;;
1414;SDS011;702;49.466;11.086;2023-05-01T10:04:02;4.93;;;4.37;;
1414;SDS011;702;49.466;11.086;2023-05-01T10:06:50;4.83;;;3.90;;
1414;SDS011;702;49.466;11.086;2023-05-01T10:09:39;6.20;;;4.30;;
1414;SDS011;702;49.466;11.086;2023-05-01T10:12:27;4.90;;;4.47;;
1414;SDS011;702;49.466;11.086;2023-05-01T10:15:17;4.60;;;4.10;;
1414;SDS011;702;49.466;11.086;2023-05-01T10:18:06;4.40;;;4.00;;
1414;SDS011;702;49.466;11.086;2023-05-01T10:20:55;3.83;;;3.53;;
1414;SDS011;702;49.466;11.086;2023-05-01T10:23:43;5.20;;;4.50;;
1414;SDS011;702;49.466;11.086;2023-05-01T10:26:32;4.70;;;4.30;;
1414;SDS011;702;49.466;11.086;2023-05-01T10:29:19;4.57;;;4.17;;
1414;SDS011;702;49.466;11.086;2023-05-01T10:32:10;6.00;;;4.67;;
1414;SDS011;702;49.466;11.086;2023-05-01T10:34:58;4.93;;;4.30;;
1414;SDS011;702;49.466;11.086;2023-05-01T10:37:50;5.20;;;4.73;;
1414;SDS011;702;49.466;11.086;2023-05-01T10:40:46;6.10;;;4.03;;
1414;SDS011;702;49.466;11.086;2023-05-01T10:43:36;5.00;;;4.60;;
1414;SDS011;702;49.466;11.086;2023-05-01T10:46:27;5.37;;;4.50;;
1414;SDS011;702;49.466;11.086;2023-05-01T10:49:15;5.93;;;4.70;;
1414;SDS011;702;49.466;11.086;2023-05-01T10:52:03;5.37;;;4.70;;
1414;SDS011;702;49.466;11.086;2023-05-01T10:54:51;6.33;;;5.00;;
1414;SDS011;702;49.466;11.086;2023-05-01T10:57:42;6.57;;;5.50;;
1414;SDS011;702;49.466;11.086;2023-05-01T11:00:31;6.20;;;5.17;;
1414;SDS011;702;49.466;11.086;2023-05-01T11:03:35;7.40;;;5.30;;
1414;SDS011;702;49.466;11.086;2023-05-01T11:06:24;7.50;;;6.37;;
1414;SDS011;702;49.466;11.086;2023-05-01T11:15:37;7.00;;;6.00;;
1414;SDS011;702;49.466;11.086;2023-05-01T11:21:33;8.73;;;7.23;;
1414;SDS011;702;49.466;11.086;2023-05-01T11:24:30;10.13;;;6.77;;
1414;SDS011;702;49.466;11.086;2023-05-01T11:27:18;8.60;;;6.80;;
1414;SDS011;702;49.466;11.086;2023-05-01T11:30:07;8.77;;;7.67;;
1414;SDS011;702;49.466;11.086;2023-05-01T11:32:58;14.40;;;7.77;;
1414;SDS011;702;49.466;11.086;2023-05-01T11:35:45;13.50;;;8.03;;
1414;SDS011;702;49.466;11.086;2023-05-01T11:38:49;9.27;;;7.70;;
1414;SDS011;702;49.466;11.086;2023-05-01T11:41:37;9.80;;;7.83;;
1414;SDS011;702;49.466;11.086;2023-05-01T11:44:25;9.53;;;7.70;;
1414;SDS011;702;49.466;11.086;2023-05-01T11:47:14;9.43;;;7.93;;
1414;SDS011;702;49.466;11.086;2023-05-01T11:50:03;10.17;;;7.80;;
1414;SDS011;702;49.466;11.086;2023-05-01T11:52:53;10.37;;;7.47;;
1414;SDS011;702;49.466;11.086;2023-05-01T11:55:42;9.43;;;7.80;;
1414;SDS011;702;49.466;11.086;2023-05-01T11:58:31;7.97;;;6.90;;
1414;SDS011;702;49.466;11.086;2023-05-01T12:01:20;7.43;;;6.70;;
1414;SDS011;702;49.466;11.086;2023-05-01T12:04:08;8.50;;;7.57;;
1414;SDS011;702;49.466;11.086;2023-05-01T12:06:57;9.90;;;7.90;;
1414;SDS011;702;49.466;11.086;2023-05-01T12:09:45;9.43;;;8.03;;
1414;SDS011;702;49.466;11.086;2023-05-01T12:12:33;11.60;;;7.97;;
1414;SDS011;702;49.466;11.086;2023-05-01T12:15:22;8.23;;;7.17;;
1414;SDS011;702;49.466;11.086;2023-05-01T12:18:10;8.20;;;7.40;;
1414;SDS011;702;49.466;11.086;2023-05-01T12:20:58;8.90;;;7.43;;
1414;SDS011;702;49.466;11.086;2023-05-01T12:23:48;9.00;;;7.87;;
1414;SDS011;702;49.466;11.086;2023-05-01T12:26:35;9.33;;;7.27;;
1414;SDS011;702;49.466;11.086;2023-05-01T12:29:23;8.67;;;7.53;;
1414;SDS011;702;49.466;11.086;2023-05-01T12:32:10;10.30;;;8.50;;
1414;SDS011;702;49.466;11.086;2023-05-01T12:34:58;10.83;;;8.27;;
1414;SDS011;702;49.466;11.086;2023-05-01T12:37:46;9.33;;;7.60;;
1414;SDS011;702;49.466;11.086;2023-05-01T12:40:35;9.27;;;8.07;;
1414;SDS011;702;49.466;11.086;2023-05-01T12:43:28;9.40;;;7.37;;
1414;SDS011;702;49.466;11.086;2023-05-01T12:46:17;9.40;;;8.27;;
1414;SDS011;702;49.466;11.086;2023-05-01T12:49:05;12.40;;;7.90;;
1414;SDS011;702;49.466;11.086;2023-05-01T12:51:53;9.50;;;7.87;;
1414;SDS011;702;49.466;11.086;2023-05-01T12:54:42;10.33;;;7.97;;
1414;SDS011;702;49.466;11.086;2023-05-01T12:57:31;10.03;;;8.23;;
1414;SDS011;702;49.466;11.086;2023-05-01T13:00:19;9.67;;;8.17;;
1414;SDS011;702;49.466;11.086;2023-05-01T13:03:07;9.53;;;8.53;;
1414;SDS011;702;49.466;11.086;2023-05-01T13:05:55;8.70;;;7.33;;
1414;SDS011;702;49.466;11.086;2023-05-01T13:08:44;10.40;;;8.13;;
1414;SDS011;702;49.466;11.086;2023-05-01T13:11:31;9.67;;;8.67;;
1414;SDS011;702;49.466;11.086;2023-05-01T13:14:20;10.10;;;7.80;;
1414;SDS011;702;49.466;11.086;2023-05-01T13:17:08;10.60;;;8.40;;
1414;SDS011;702;49.466;11.086;2023-05-01T13:19:57;9.00;;;8.10;;
1414;SDS011;702;49.466;11.086;2023-05-01T13:22:46;8.73;;;7.73;;
1414;SDS011;702;49.466;11.086;2023-05-01T13:25:33;9.43;;;8.20;;
1414;SDS011;702;49.466;11.086;2023-05-01T13:28:21;9.20;;;8.10;;
1414;SDS011;702;49.466;11.086;2023-05-01T13:31:12;11.10;;;8.40;;
1414;SDS011;702;49.466;11.086;2023-05-01T13:34:00;11.60;;;7.80;;
1414;SDS011;702;49.466;11.086;2023-05-01T13:36:50;10.10;;;7.70;;
1414;SDS011;702;49.466;11.086;2023-05-01T13:39:39;8.30;;;7.40;;
1414;SDS011;702;49.466;11.086;2023-05-01T13:42:27;9.43;;;7.50;;
1414;SDS011;702;49.466;11.086;2023-05-01T13:45:17;10.33;;;7.90;;
1414;SDS011;702;49.466;11.086;2023-05-01T13:48:08;8.63;;;7.73;;
1414;SDS011;702;49.466;11.086;2023-05-01T13:50:56;10.13;;;8.13;;
1414;SDS011;702;49.466;11.086;2023-05-01T13:53:43;12.83;;;8.43;;
1414;SDS011;702;49.466;11.086;2023-05-01T13:56:31;8.47;;;7.60;;
1414;SDS011;702;49.466;11.086;2023-05-01T13:59:21;9.00;;;7.30;;
1414;SDS011;702;49.466;11.086;2023-05-01T14:02:12;8.40;;;7.43;;
1414;SDS011;702;49.466;11.086;2023-05-01T14:05:07;9.43;;;7.53;;
1414;SDS011;702;49.466;11.086;2023-05-01T14:07:56;7.47;;;6.60;;
1414;SDS011;702;49.466;11.086;2023-05-01T14:10:44;8.70;;;7.20;;
1414;SDS011;702;49.466;11.086;2023-05-01T14:13:32;9.27;;;6.83;;
1414;SDS011;702;49.466;11.086;2023-05-01T14:16:22;7.80;;;6.50;;
1414;SDS011;702;49.466;11.086;2023-05-01T14:18:51;8.60;;;7.57;;
1414;SDS011;702;49.466;11.086;2023-05-01T14:21:22;7.67;;;6.93;;
1414;SDS011;702;49.466;11.086;2023-05-01T14:23:52;9.07;;;8.23;;
1414;SDS011;702;49.466;11.086;2023-05-01T14:26:20;9.00;;;8.07;;
1414;SDS011;702;49.466;11.086;2023-05-01T14:28:48;8.57;;;7.30;;
1414;SDS011;702;49.466;11.086;2023-05-01T14:31:23;8.43;;;7.60;;
1414;SDS011;702;49.466;11.086;2023-05-01T14:33:54;8.10;;;7.30;;
1414;SDS011;702;49.466;11.086;2023-05-01T14:36:24;8.40;;;7.50;;
1414;SDS011;702;49.466;11.086;2023-05-01T14:38:55;8.33;;;7.53;;
1414;SDS011;702;49.466;11.086;2023-05-01T14:41:22;9.37;;;7.87;;
1414;SDS011;702;49.466;11.086;2023-05-01T14:43:50;8.77;;;7.30;;
1414;SDS011;702;49.466;11.086;2023-05-01T14:46:23;7.40;;;6.67;;
1414;SDS011;702;49.466;11.086;2023-05-01T14:48:54;7.40;;;6.20;;
1414;SDS011;702;49.466;11.086;2023-05-01T14:51:24;8.37;;;7.40;;
1414;SDS011;702;49.466;11.086;2023-05-01T14:53:51;9.17;;;7.33;;
1414;SDS011;702;49.466;11.086;2023-05-01T14:56:18;9.10;;;7.23;;
1414;SDS011;702;49.466;11.086;2023-05-01T14:58:50;7.43;;;6.73;;
1414;SDS011;702;49.466;11.086;2023-05-01T15:01:18;9.33;;;7.97;;
1414;SDS011;702;49.466;11.086;2023-05-01T15:03:45;9.90;;;7.60;;
1414;SDS011;702;49.466;11.086;2023-05-01T15:06:13;7.87;;;7.07;;
1414;SDS011;702;49.466;11.086;2023-05-01T15:08:42;8.27;;;7.40;;
1414;SDS011;702;49.466;11.086;2023-05-01T15:11:11;8.40;;;7.50;;
1414;SDS011;702;49.466;11.086;2023-05-01T15:13:39;8.23;;;7.43;;
1414;SDS011;702;49.466;11.086;2023-05-01T15:16:06;10.00;;;7.50;;
1414;SDS011;702;49.466;11.086;2023-05-01T15:18:35;12.23;;;6.40;;
1414;SDS011;702;49.466;11.086;2023-05-01T15:21:02;6.77;;;6.07;;
1414;SDS011;702;49.466;11.086;2023-05-01T15:23:29;7.37;;;6.43;;
1414;SDS011;702;49.466;11.086;2023-05-01T15:25:58;7.83;;;6.17;;
1414;SDS011;702;49.466;11.086;2023-05-01T15:28:26;8.40;;;6.70;;
1414;SDS011;702;49.466;11.086;2023-05-01T15:30:53;6.80;;;6.20;;
1414;SDS011;702;49.466;11.086;2023-05-01T15:33:20;6.73;;;5.87;;
1414;SDS011;702;49.466;11.086;2023-05-01T15:35:47;7.83;;;6.80;;
1414;SDS011;702;49.466;11.086;2023-05-01T15:38:15;10.57;;;7.60;;
1414;SDS011;702;49.466;11.086;2023-05-01T15:40:42;7.10;;;6.40;;
1414;SDS011;702;49.466;11.086;2023-05-01T15:43:11;7.60;;;6.80;;
1414;SDS011;702;49.466;11.086;2023-05-01T15:45:38;7.20;;;5.83;;
1414;SDS011;702;49.466;11.086;2023-05-01T15:48:07;7.83;;;5.67;;
1414;SDS011;702;49.466;11.086;2023-05-01T15:50:35;6.17;;;5.17;;
1414;SDS011;702;49.466;11.086;2023-05-01T15:53:02;7.47;;;5.70;;
1414;SDS011;702;49.466;11.086;2023-05-01T15:55:29;8.53;;;5.70;;
1414;SDS011;702;49.466;11.086;2023-05-01T15:57:58;6.50;;;5.47;;
1414;SDS011;702;49.466;11.086;2023-05-01T16:00:28;5.97;;;5.37;;
1414;SDS011;702;49.466;11.086;2023-05-01T16:02:55;5.87;;;5.37;;
1414;SDS011;702;49.466;11.086;2023-05-01T16:05:22;6.23;;;5.40;;
1414;SDS011;702;49.466;11.086;2023-05-01T16:07:51;5.43;;;4.93;;
1414;SDS011;702;49.466;11.086;2023-05-01T16:10:20;6.17;;;5.13;;